This is the latest recevied weather packets stored in our database for station/object DG8RAD-1. If no packets are shown the sender has not sent any weather packets the latest 10 day(s).
| Time | Temp. | Humidity | Pressure | Rain* | Wind** | Luminosity | Snow |
|---|---|---|---|---|---|---|---|
| 1788606006 | 29.44° C | 37% | 1025 hPa | 0 mm | - | - | - |
| 1788605105 | 29.44° C | 38% | 1025 hPa | 0 mm | - | - | - |
| 1788604205 | 28.89° C | 39% | 1025 hPa | 0 mm | - | - | - |
| 1788603305 | 28.89° C | 39% | 1025 hPa | 0 mm | - | - | - |
| 1788602405 | 28.33° C | 39% | 1025 hPa | 0 mm | - | - | - |
| 1788601505 | 28.33° C | 40% | 1025 hPa | 0 mm | - | - | - |
| 1788600620 | 28.33° C | 40% | 1025 hPa | 0 mm | - | - | - |
| 1788599705 | 28.33° C | 40% | 1025 hPa | 0 mm | - | - | - |
| 1788597908 | 28.89° C | 40% | 1024 hPa | 0 mm | - | - | - |
| 1788597005 | 28.89° C | 40% | 1024 hPa | 0 mm | - | - | - |
| 1788596106 | 28.89° C | 40% | 1024 hPa | 0 mm | - | - | - |
| 1788595206 | 28.89° C | 39% | 1024 hPa | 0 mm | - | - | - |
| 1788594305 | 28.33° C | 38% | 1024 hPa | 0 mm | - | - | - |
| 1788593405 | 28.33° C | 39% | 1024 hPa | 0 mm | - | - | - |
| 1788592505 | 27.78° C | 41% | 1024 hPa | 0 mm | - | - | - |
| 1788591605 | 27.78° C | 41% | 1024 hPa | 0 mm | - | - | - |
| 1788590705 | 27.78° C | 41% | 1024 hPa | 0 mm | - | - | - |
| 1788589805 | 27.78° C | 42% | 1023 hPa | 0 mm | - | - | - |
| 1788587109 | 28.33° C | 39% | 1023 hPa | 0 mm | - | - | - |
| 1788586206 | 28.33° C | 36% | 1023 hPa | 0 mm | - | - | - |
| 1788585305 | 28.89° C | 30% | 1023 hPa | 0 mm | - | - | - |
| 1788584407 | 28.89° C | 30% | 1023 hPa | 0 mm | - | - | - |
| 1788583505 | 28.89° C | 30% | 1022 hPa | 0 mm | - | - | - |
| 1788582605 | 28.89° C | 30% | 1022 hPa | 0 mm | - | - | - |
| 1788581705 | 28.89° C | 31% | 1022 hPa | 0 mm | - | - | - |
* Rain latest hour (hover to see other rain measurements)
** Current wind speed in m/s (hover to see current wind gust speed)